Van Buren, Minnesota
Current Conditions -  °F | °C
As of 9:56 PM on Saturday 25 Oct 2014 (Local Time) from KCOQ Reporting Station
Clear Clear  
Wind Chill: 42°   Ceiling: Unl
Heat Index: 45°   Visibility: 10mi
Dew Point: 25°   Wind: 5mph
Humidity: 46%   Direction: 250°WSW
Pressure: 29.98"   Gusts: NA
Location:  46.9584°N, 92.9445°W
Report Text: KCOQ 260256Z AUTO 25004KT 10SM CLR 07/M04 A2998 RMK AO2
Loading
Personal Weather Stations






























Interactive Weather Map
Tropical Storm Tracking
New forecast layout! Learn more

10-Day Weather Forecast

Advertisements
Track Severe Weather on mobile